createdAt,value
2018-10-04T00:00:03.046Z,14.87
2018-10-04T00:02:30.860Z,19.67
2018-10-04T00:04:58.671Z,18.03
2018-10-04T00:07:26.451Z,19.40
2018-10-04T00:09:54.363Z,15.87
2018-10-04T00:12:22.203Z,20.30
2018-10-04T00:14:50.030Z,20.83
2018-10-04T00:17:17.827Z,16.37
2018-10-04T00:19:45.628Z,16.30
2018-10-04T00:22:13.437Z,14.80
2018-10-04T00:24:41.272Z,15.57
2018-10-04T00:27:09.064Z,18.93
2018-10-04T00:29:36.964Z,16.20
2018-10-04T00:32:04.862Z,14.37
2018-10-04T00:34:32.588Z,21.63
2018-10-04T00:37:00.444Z,17.10
2018-10-04T00:39:28.251Z,16.50
2018-10-04T00:41:56.026Z,20.13
2018-10-04T00:44:23.760Z,15.30
2018-10-04T00:46:51.556Z,20.63
2018-10-04T00:49:19.389Z,12.83
2018-10-04T00:51:47.252Z,18.03
2018-10-04T00:54:15.031Z,13.50
2018-10-04T00:56:42.806Z,15.33
2018-10-04T00:59:10.554Z,21.73
2018-10-04T01:01:38.392Z,19.80
2018-10-04T01:04:06.184Z,14.70
2018-10-04T01:06:33.963Z,15.73
2018-10-04T01:09:01.894Z,16.77
2018-10-04T01:11:29.652Z,12.83
2018-10-04T01:13:57.492Z,15.10
2018-10-04T01:16:25.313Z,13.10
2018-10-04T01:18:56.211Z,15.83
2018-10-04T01:21:24.133Z,12.03
2018-10-04T01:23:52.796Z,14.17
2018-10-04T01:26:20.969Z,9.33
2018-10-04T01:28:49.379Z,19.57
2018-10-04T01:31:17.751Z,10.10
2018-10-04T01:33:45.710Z,20.73
2018-10-04T01:36:13.588Z,18.20
2018-10-04T01:38:41.436Z,16.20
2018-10-04T01:41:09.314Z,16.60
2018-10-04T01:43:37.252Z,19.10
2018-10-04T01:46:05.364Z,13.37
2018-10-04T01:48:33.245Z,17.07
2018-10-04T01:51:01.131Z,17.40
2018-10-04T01:53:28.929Z,17.47
2018-10-04T01:55:56.764Z,16.57
2018-10-04T01:58:24.581Z,17.60
2018-10-04T02:00:52.411Z,21.97
2018-10-04T02:03:20.320Z,18.87
2018-10-04T02:05:48.164Z,12.57
2018-10-04T02:08:16.088Z,18.00
2018-10-04T02:10:43.909Z,13.93
2018-10-04T02:13:11.739Z,17.83
2018-10-04T02:15:39.524Z,14.07
2018-10-04T02:18:07.293Z,19.20
2018-10-04T02:20:35.156Z,18.47
2018-10-04T02:23:02.953Z,20.17
2018-10-04T02:25:31.027Z,19.83
2018-10-04T02:27:58.831Z,17.33
2018-10-04T02:30:26.644Z,18.03
2018-10-04T02:32:54.399Z,17.03
2018-10-04T02:35:22.282Z,21.87
2018-10-04T02:37:50.038Z,15.10
2018-10-04T02:40:17.832Z,17.37
2018-10-04T02:42:45.619Z,17.07
2018-10-04T02:45:13.444Z,16.37
2018-10-04T02:47:41.305Z,15.77
2018-10-04T02:50:09.156Z,15.17
2018-10-04T02:52:36.970Z,15.13
2018-10-04T02:55:11.413Z,14.67
2018-10-04T02:57:39.487Z,17.33
2018-10-04T03:00:07.266Z,14.70
2018-10-04T03:02:35.048Z,18.63
2018-10-04T03:05:02.907Z,16.63
2018-10-04T03:07:30.686Z,14.40
2018-10-04T03:09:58.520Z,16.40
2018-10-04T03:12:26.448Z,23.83
2018-10-04T03:14:54.610Z,14.57
2018-10-04T03:17:22.459Z,19.07
2018-10-04T03:19:52.740Z,17.40
2018-10-04T03:22:20.577Z,14.77
2018-10-04T03:24:48.370Z,18.87
2018-10-04T03:27:16.180Z,14.47
2018-10-04T03:29:43.936Z,16.77
2018-10-04T03:32:11.772Z,17.17
2018-10-04T03:34:39.580Z,16.17
2018-10-04T03:37:07.420Z,16.03
2018-10-04T03:39:35.225Z,15.30
2018-10-04T03:42:03.024Z,20.10
2018-10-04T03:44:30.863Z,18.00
2018-10-04T03:46:58.660Z,17.27
2018-10-04T03:49:26.458Z,24.43
2018-10-04T03:51:54.180Z,19.00
2018-10-04T03:54:22.020Z,13.80
2018-10-04T03:56:49.840Z,14.13
2018-10-04T03:59:17.636Z,18.67
2018-10-04T04:01:48.573Z,20.30
2018-10-04T04:04:16.464Z,19.03
2018-10-04T04:06:44.260Z,16.97
2018-10-04T04:09:12.751Z,16.53
2018-10-04T04:11:40.984Z,19.83
2018-10-04T04:14:08.632Z,12.67
2018-10-04T04:16:36.486Z,18.83
2018-10-04T04:19:04.407Z,15.23
2018-10-04T04:21:32.241Z,17.60
2018-10-04T04:24:00.056Z,14.93
2018-10-04T04:26:27.951Z,13.00
2018-10-04T04:28:57.987Z,26.67
2018-10-04T04:31:25.816Z,20.57
2018-10-04T04:33:53.690Z,16.20
2018-10-04T04:36:21.571Z,17.20
2018-10-04T04:38:49.486Z,14.33
2018-10-04T04:41:17.641Z,13.70
2018-10-04T04:43:45.563Z,21.30
2018-10-04T04:46:13.600Z,20.03
2018-10-04T04:48:41.411Z,18.37
2018-10-04T04:51:09.285Z,18.70
2018-10-04T04:53:38.407Z,18.23
2018-10-04T04:56:06.460Z,14.30
2018-10-04T04:58:34.341Z,18.60
2018-10-04T05:01:02.192Z,13.57
2018-10-04T05:03:30.008Z,15.70
2018-10-04T05:05:57.820Z,15.57
2018-10-04T05:08:25.629Z,21.77
2018-10-04T05:10:53.524Z,18.10
2018-10-04T05:13:21.315Z,13.10
2018-10-04T05:15:49.154Z,17.83
2018-10-04T05:18:16.997Z,14.23
2018-10-04T05:20:44.888Z,23.10
2018-10-04T05:23:12.683Z,16.10
2018-10-04T05:25:40.544Z,20.10
2018-10-04T05:28:08.385Z,16.23
2018-10-04T05:30:36.195Z,22.77
2018-10-04T05:33:04.039Z,18.17
2018-10-04T05:35:31.896Z,21.87
2018-10-04T05:37:59.716Z,19.00
2018-10-04T05:40:27.620Z,15.77
2018-10-04T05:42:55.446Z,20.97
2018-10-04T05:45:23.277Z,19.83
2018-10-04T05:47:51.060Z,17.77
2018-10-04T05:50:18.863Z,20.47
2018-10-04T05:52:46.701Z,20.33
2018-10-04T05:55:15.070Z,22.90
2018-10-04T05:57:42.920Z,14.07
2018-10-04T06:00:41.275Z,16.57
2018-10-04T06:03:09.199Z,16.23
2018-10-04T06:05:37.204Z,22.00
2018-10-04T06:08:05.161Z,21.23
2018-10-04T06:10:33.449Z,20.70
2018-10-04T06:13:01.299Z,28.47
2018-10-04T06:15:29.280Z,26.53
2018-10-04T06:17:57.071Z,16.40
2018-10-04T06:20:26.260Z,22.93
2018-10-04T06:22:54.096Z,16.40
2018-10-04T06:25:21.956Z,19.30
2018-10-04T06:27:49.752Z,18.20
2018-10-04T06:30:17.605Z,20.43
2018-10-04T06:32:45.465Z,20.20
2018-10-04T06:35:13.342Z,19.80
2018-10-04T06:37:44.687Z,24.00
2018-10-04T06:40:12.569Z,21.63
2018-10-04T06:42:40.419Z,22.43
2018-10-04T06:45:08.248Z,27.80
2018-10-04T06:47:36.028Z,33.03
2018-10-04T06:50:04.066Z,31.67
2018-10-04T06:52:31.851Z,27.27
2018-10-04T06:54:59.647Z,25.10
2018-10-04T06:57:27.489Z,28.10
2018-10-04T06:59:59.816Z,23.33
2018-10-04T07:02:27.824Z,19.13
2018-10-04T07:04:55.588Z,24.80
2018-10-04T07:07:23.425Z,32.87
2018-10-04T07:09:51.283Z,25.10
2018-10-04T07:12:19.116Z,30.53
2018-10-04T07:14:46.929Z,19.80
2018-10-04T07:17:14.796Z,27.87
2018-10-04T07:19:42.543Z,28.50
2018-10-04T07:22:10.435Z,25.77
2018-10-04T07:24:38.224Z,27.37
2018-10-04T07:27:06.139Z,27.20
2018-10-04T07:29:33.924Z,22.50
2018-10-04T07:32:01.744Z,21.87
2018-10-04T07:34:29.704Z,22.07
2018-10-04T07:36:57.514Z,23.53
2018-10-04T07:39:26.202Z,20.83
2018-10-04T07:41:57.942Z,19.47
2018-10-04T07:44:25.895Z,17.43
2018-10-04T07:46:53.761Z,25.23
2018-10-04T07:49:21.555Z,22.63
2018-10-04T07:51:49.395Z,21.23
2018-10-04T07:54:17.209Z,19.70
2018-10-04T07:56:45.115Z,22.93
2018-10-04T07:59:12.796Z,21.80
2018-10-04T08:01:40.719Z,21.57
2018-10-04T08:04:08.563Z,24.90
2018-10-04T08:06:36.644Z,23.47
2018-10-04T08:09:06.791Z,17.87
2018-10-04T08:11:34.612Z,18.77
2018-10-04T08:14:02.361Z,22.23
2018-10-04T08:16:30.175Z,30.33
2018-10-04T08:18:58.076Z,17.37
2018-10-04T08:21:25.876Z,22.73
2018-10-04T08:23:53.709Z,17.23
2018-10-04T08:26:21.504Z,22.03
2018-10-04T08:28:49.332Z,22.50
2018-10-04T08:31:17.145Z,20.73
2018-10-04T08:33:44.997Z,18.27
2018-10-04T08:36:12.816Z,21.50
2018-10-04T08:38:40.618Z,17.70
2018-10-04T08:41:08.444Z,20.83
2018-10-04T08:43:36.210Z,24.57
2018-10-04T08:46:04.008Z,23.13
2018-10-04T08:48:31.748Z,17.57
2018-10-04T08:50:59.524Z,23.27
2018-10-04T08:53:27.405Z,21.20
2018-10-04T08:55:55.204Z,22.00
2018-10-04T08:58:22.968Z,20.83
2018-10-04T09:00:50.737Z,25.33
2018-10-04T09:03:19.381Z,19.93
2018-10-04T09:05:47.903Z,23.87
2018-10-04T09:08:19.718Z,19.40
2018-10-04T09:10:47.588Z,19.40
2018-10-04T09:13:15.385Z,19.27
2018-10-04T09:15:43.189Z,24.00
2018-10-04T09:18:11.005Z,20.63
2018-10-04T09:20:38.864Z,23.83
2018-10-04T09:23:06.696Z,26.67
2018-10-04T09:25:34.606Z,20.77
2018-10-04T09:28:02.704Z,17.80
2018-10-04T09:30:36.204Z,19.40
2018-10-04T09:33:04.037Z,20.57
2018-10-04T09:35:31.868Z,22.27
2018-10-04T09:37:59.872Z,19.83
2018-10-04T09:40:27.627Z,19.03
2018-10-04T09:42:55.386Z,21.90
2018-10-04T09:45:23.168Z,26.27
2018-10-04T09:47:55.397Z,24.80
2018-10-04T09:50:27.890Z,26.57
2018-10-04T09:52:56.035Z,31.60
2018-10-04T09:55:23.908Z,24.57
2018-10-04T09:57:51.773Z,20.27
2018-10-04T10:00:25.596Z,18.07
2018-10-04T10:02:54.559Z,23.83
2018-10-04T10:05:22.307Z,21.80
2018-10-04T10:07:50.897Z,18.47
2018-10-04T10:10:18.739Z,18.10
2018-10-04T10:12:46.775Z,15.33
2018-10-04T10:15:14.995Z,15.17
2018-10-04T10:17:42.823Z,18.40
2018-10-04T10:20:11.231Z,20.63
2018-10-04T10:22:39.334Z,18.30
2018-10-04T10:25:07.215Z,15.53
2018-10-04T10:27:35.080Z,21.30
2018-10-04T10:30:02.980Z,19.03
2018-10-04T10:32:34.508Z,20.77
2018-10-04T10:35:02.439Z,21.07
2018-10-04T10:37:30.259Z,15.50
2018-10-04T10:39:58.353Z,21.23
2018-10-04T10:42:26.076Z,21.77
2018-10-04T10:44:53.883Z,19.67
2018-10-04T10:47:21.751Z,16.07
2018-10-04T10:49:49.495Z,20.33
2018-10-04T10:52:17.426Z,16.43
2018-10-04T10:54:45.168Z,13.47
2018-10-04T10:57:12.963Z,17.73
2018-10-04T10:59:40.760Z,15.00
2018-10-04T11:02:08.574Z,19.77
2018-10-04T11:04:36.415Z,13.10
2018-10-04T11:07:04.299Z,15.57
2018-10-04T11:09:32.120Z,18.20
2018-10-04T11:11:59.931Z,14.60
2018-10-04T11:14:27.774Z,11.20
2018-10-04T11:16:55.651Z,13.23
2018-10-04T11:19:23.604Z,17.07
2018-10-04T11:21:51.484Z,14.53
2018-10-04T11:24:19.322Z,10.10
2018-10-04T11:26:47.152Z,12.37
2018-10-04T11:29:14.923Z,15.23
2018-10-04T11:31:42.687Z,11.10
2018-10-04T11:34:10.508Z,11.87
2018-10-04T11:36:39.418Z,18.23
2018-10-04T11:39:09.000Z,12.30
2018-10-04T11:41:37.788Z,11.40
2018-10-04T11:44:11.072Z,9.00
2018-10-04T11:46:38.924Z,13.90
2018-10-04T11:49:06.934Z,9.80
2018-10-04T11:51:34.747Z,14.07
2018-10-04T11:54:02.593Z,12.07
2018-10-04T11:56:30.434Z,11.10
2018-10-04T11:59:01.743Z,10.97
2018-10-04T12:01:29.844Z,12.03
2018-10-04T12:03:57.656Z,16.27
2018-10-04T12:06:25.592Z,11.37
2018-10-04T12:08:53.331Z,9.57
2018-10-04T12:11:21.131Z,11.43
2018-10-04T12:13:49.023Z,9.53
2018-10-04T12:16:16.820Z,10.80
2018-10-04T12:18:44.660Z,7.13
2018-10-04T12:21:12.487Z,7.27
2018-10-04T12:23:40.292Z,8.00
2018-10-04T12:26:08.111Z,7.60
2018-10-04T12:28:35.852Z,14.30
2018-10-04T12:31:03.719Z,10.50
2018-10-04T12:33:31.407Z,9.83
2018-10-04T12:35:59.277Z,7.67
2018-10-04T12:38:27.088Z,10.67
2018-10-04T12:40:54.871Z,11.23
2018-10-04T12:43:22.726Z,8.93
2018-10-04T12:45:50.588Z,9.10
2018-10-04T12:48:18.438Z,9.00
2018-10-04T12:50:46.283Z,10.47
2018-10-04T12:53:14.139Z,7.77
2018-10-04T12:55:41.940Z,8.13
2018-10-04T12:58:09.759Z,9.77
2018-10-04T13:00:37.526Z,6.50
2018-10-04T13:03:05.324Z,11.27
2018-10-04T13:05:33.152Z,12.87
2018-10-04T13:08:00.944Z,9.27
2018-10-04T13:10:28.780Z,9.53
2018-10-04T13:12:56.564Z,7.27
2018-10-04T13:15:24.361Z,11.03
2018-10-04T13:17:52.125Z,11.10
2018-10-04T13:20:19.945Z,7.67
2018-10-04T13:22:47.732Z,10.30
2018-10-04T13:25:15.648Z,7.03
2018-10-04T13:27:43.488Z,8.67
2018-10-04T13:30:11.320Z,9.90
2018-10-04T13:32:39.117Z,7.73
2018-10-04T13:35:06.920Z,10.10
2018-10-04T13:37:34.767Z,9.50
2018-10-04T13:40:02.536Z,8.43
2018-10-04T13:42:30.359Z,8.50
2018-10-04T13:44:58.202Z,7.07
2018-10-04T13:47:25.965Z,8.27
2018-10-04T13:49:53.759Z,7.70
2018-10-04T13:52:21.544Z,9.23
2018-10-04T13:54:50.014Z,9.13
2018-10-04T13:57:17.812Z,9.97
2018-10-04T13:59:45.700Z,6.63
2018-10-04T14:02:13.484Z,6.27
2018-10-04T14:04:41.280Z,7.13
2018-10-04T14:07:09.087Z,9.03
2018-10-04T14:09:36.920Z,10.80
2018-10-04T14:12:04.764Z,7.70
2018-10-04T14:14:32.564Z,10.27
2018-10-04T14:17:00.360Z,8.87
2018-10-04T14:19:28.226Z,7.67
2018-10-04T14:21:56.076Z,8.43
2018-10-04T14:24:23.848Z,8.93
2018-10-04T14:26:51.664Z,7.17
2018-10-04T14:29:19.539Z,7.30
2018-10-04T14:31:47.388Z,8.30
2018-10-04T14:34:15.268Z,7.80
2018-10-04T14:36:42.996Z,5.90
2018-10-04T14:39:10.881Z,8.33
2018-10-04T14:41:38.648Z,6.80
2018-10-04T14:44:06.492Z,4.47
2018-10-04T14:46:34.336Z,5.57
2018-10-04T14:49:02.169Z,3.97
2018-10-04T14:51:29.959Z,8.27
2018-10-04T14:54:01.532Z,4.60
2018-10-04T14:56:29.385Z,8.43
2018-10-04T14:58:57.223Z,6.50
2018-10-04T15:01:25.000Z,6.80
2018-10-04T15:03:52.835Z,6.97
2018-10-04T15:06:20.544Z,7.20
2018-10-04T15:08:48.343Z,5.37
2018-10-04T15:11:16.119Z,4.43
2018-10-04T15:13:43.899Z,8.97
2018-10-04T15:16:15.378Z,9.13
2018-10-04T15:18:43.176Z,5.70
2018-10-04T15:21:11.031Z,3.67
2018-10-04T15:23:38.809Z,6.43
2018-10-04T15:26:06.743Z,5.17
2018-10-04T15:28:34.553Z,7.03
2018-10-04T15:31:02.453Z,5.00
2018-10-04T15:33:30.236Z,7.20
2018-10-04T15:35:58.024Z,6.57
2018-10-04T15:38:25.927Z,10.07
2018-10-04T15:40:53.685Z,10.53
2018-10-04T15:43:21.464Z,8.83
2018-10-04T15:45:49.255Z,6.67
2018-10-04T15:48:17.108Z,5.20
2018-10-04T15:50:44.887Z,3.73
2018-10-04T15:53:12.728Z,8.77
2018-10-04T15:55:40.464Z,4.50
2018-10-04T15:58:08.268Z,6.37
2018-10-04T16:00:36.143Z,7.53
2018-10-04T16:03:03.900Z,8.87
2018-10-04T16:05:31.717Z,4.83
2018-10-04T16:07:59.508Z,7.80
2018-10-04T16:10:27.322Z,6.53
2018-10-04T16:12:55.085Z,3.73
2018-10-04T16:15:26.555Z,5.53
2018-10-04T16:17:54.326Z,8.63
2018-10-04T16:20:22.060Z,8.03
2018-10-04T16:22:49.829Z,7.37
2018-10-04T16:25:17.600Z,6.37
2018-10-04T16:27:47.327Z,6.30
2018-10-04T16:30:15.843Z,8.13
2018-10-04T16:32:44.198Z,5.27
2018-10-04T16:35:12.154Z,6.10
2018-10-04T16:37:40.661Z,4.97
2018-10-04T16:40:08.708Z,7.73
2018-10-04T16:42:36.591Z,6.47
2018-10-04T16:45:04.490Z,6.27
2018-10-04T16:47:32.226Z,4.67
2018-10-04T16:50:00.064Z,5.47
2018-10-04T16:52:27.881Z,8.67
2018-10-04T16:54:55.688Z,7.50
2018-10-04T16:57:23.452Z,7.63
2018-10-04T16:59:51.322Z,4.63
2018-10-04T17:02:19.094Z,9.97
2018-10-04T17:04:46.879Z,7.53
2018-10-04T17:07:14.752Z,8.57
2018-10-04T17:09:42.574Z,9.87
2018-10-04T17:12:10.368Z,5.57
2018-10-04T17:14:38.144Z,6.70
2018-10-04T17:17:05.950Z,7.03
2018-10-04T17:19:33.703Z,4.00
2018-10-04T17:22:01.468Z,8.87
2018-10-04T17:24:29.627Z,7.07
2018-10-04T17:26:57.403Z,9.93
2018-10-04T17:29:25.251Z,7.53
2018-10-04T17:31:53.034Z,8.40
2018-10-04T17:34:20.884Z,6.97
2018-10-04T17:36:49.459Z,11.30
2018-10-04T17:39:17.236Z,8.70
2018-10-04T17:41:45.156Z,6.57
2018-10-04T17:44:12.953Z,5.20
2018-10-04T17:46:40.788Z,5.37
2018-10-04T17:49:08.648Z,7.57
2018-10-04T17:51:36.435Z,6.87
2018-10-04T17:54:04.342Z,7.47
2018-10-04T17:56:32.060Z,8.10
2018-10-04T17:58:59.800Z,7.93
2018-10-04T18:01:27.597Z,10.77
2018-10-04T18:03:55.453Z,7.97
2018-10-04T18:06:23.291Z,6.00
2018-10-04T18:08:51.128Z,9.80
2018-10-04T18:11:19.236Z,9.80
2018-10-04T18:13:47.182Z,10.83
2018-10-04T18:16:14.952Z,6.00
2018-10-04T18:18:42.729Z,8.90
2018-10-04T18:21:10.700Z,5.63
2018-10-04T18:23:38.563Z,7.37
2018-10-04T18:26:06.659Z,7.90
2018-10-04T18:28:34.484Z,6.93
2018-10-04T18:31:03.163Z,10.63
2018-10-04T18:33:30.931Z,8.67
2018-10-04T18:35:58.744Z,9.13
2018-10-04T18:38:26.577Z,11.10
2018-10-04T18:40:54.343Z,9.53
2018-10-04T18:43:22.179Z,15.40
2018-10-04T18:45:50.004Z,9.93
2018-10-04T18:48:17.779Z,16.47
2018-10-04T18:50:45.600Z,11.03
2018-10-04T18:53:13.443Z,12.33
2018-10-04T18:55:41.236Z,13.60
2018-10-04T18:58:09.008Z,10.90
2018-10-04T19:00:36.784Z,13.17
2018-10-04T19:03:04.552Z,15.40
2018-10-04T19:05:32.531Z,13.63
2018-10-04T19:08:00.430Z,14.03
2018-10-04T19:10:28.192Z,14.93
2018-10-04T19:12:55.945Z,15.87
2018-10-04T19:15:23.700Z,23.97
2018-10-04T19:17:51.551Z,15.00
2018-10-04T19:20:19.385Z,15.60
2018-10-04T19:22:47.163Z,12.90
2018-10-04T19:25:15.040Z,13.80
2018-10-04T19:27:43.063Z,12.87
2018-10-04T19:30:10.946Z,10.53
2018-10-04T19:32:38.759Z,10.33
2018-10-04T19:35:10.031Z,9.23
2018-10-04T19:37:37.908Z,17.73
2018-10-04T19:40:05.993Z,8.47
2018-10-04T19:42:33.860Z,16.70
2018-10-04T19:45:01.620Z,13.73
2018-10-04T19:47:29.491Z,13.10
2018-10-04T19:49:57.320Z,11.03
2018-10-04T19:52:25.143Z,13.10
2018-10-04T19:54:52.930Z,11.23
2018-10-04T19:57:20.752Z,10.83
2018-10-04T19:59:48.537Z,16.47
2018-10-04T20:02:16.376Z,14.00
2018-10-04T20:04:44.084Z,15.10
2018-10-04T20:07:11.894Z,15.13
2018-10-04T20:09:39.940Z,12.90
2018-10-04T20:12:07.688Z,11.83
2018-10-04T20:14:35.515Z,13.00
2018-10-04T20:17:03.380Z,13.97
2018-10-04T20:19:31.523Z,12.67
2018-10-04T20:21:59.320Z,17.33
2018-10-04T20:24:27.200Z,13.10
2018-10-04T20:26:55.017Z,17.00
2018-10-04T20:29:22.811Z,21.33
2018-10-04T20:31:50.626Z,14.33
2018-10-04T20:34:18.351Z,16.10
2018-10-04T20:36:46.224Z,18.20
2018-10-04T20:39:13.988Z,17.23
2018-10-04T20:41:41.799Z,21.97
2018-10-04T20:44:09.650Z,11.60
2018-10-04T20:46:37.472Z,17.43
2018-10-04T20:49:05.336Z,21.13
2018-10-04T20:51:33.108Z,25.80
2018-10-04T20:54:00.914Z,24.03
2018-10-04T20:56:28.738Z,24.47
2018-10-04T20:58:56.606Z,27.30
2018-10-04T21:01:24.384Z,26.00
2018-10-04T21:03:52.316Z,23.17
2018-10-04T21:06:20.128Z,23.07
2018-10-04T21:08:47.937Z,26.07
2018-10-04T21:11:15.753Z,27.37
2018-10-04T21:13:43.572Z,19.30
2018-10-04T21:16:11.360Z,26.07
2018-10-04T21:18:39.192Z,24.47
2018-10-04T21:21:07.065Z,22.27
2018-10-04T21:23:34.977Z,21.07
2018-10-04T21:26:02.869Z,20.77
2018-10-04T21:28:30.676Z,19.87
2018-10-04T21:30:58.456Z,24.33
2018-10-04T21:33:26.252Z,22.83
2018-10-04T21:36:00.749Z,20.70
2018-10-04T21:38:28.562Z,20.03
2018-10-04T21:40:56.456Z,22.90
2018-10-04T21:43:29.590Z,23.50
2018-10-04T21:45:57.599Z,23.40
2018-10-04T21:48:25.396Z,20.10
2018-10-04T21:50:53.232Z,23.03
2018-10-04T21:53:20.991Z,22.73
2018-10-04T21:55:48.853Z,21.90
2018-10-04T21:58:16.644Z,20.60
2018-10-04T22:00:50.252Z,20.80
2018-10-04T22:03:18.017Z,21.43
2018-10-04T22:05:45.787Z,20.17
2018-10-04T22:08:13.524Z,17.00
2018-10-04T22:10:41.354Z,18.63
2018-10-04T22:13:09.215Z,20.60
2018-10-04T22:15:36.972Z,17.90
2018-10-04T22:18:04.980Z,17.20
2018-10-04T22:20:32.831Z,17.50
2018-10-04T22:23:00.682Z,17.33
2018-10-04T22:25:28.441Z,17.90
2018-10-04T22:27:56.193Z,17.33
2018-10-04T22:30:23.983Z,15.47
2018-10-04T22:32:51.698Z,13.97
2018-10-04T22:35:19.519Z,13.43
2018-10-04T22:37:47.295Z,17.13
2018-10-04T22:40:15.068Z,19.17
2018-10-04T22:42:42.852Z,17.53
2018-10-04T22:45:10.652Z,23.23
2018-10-04T22:47:38.501Z,19.10
2018-10-04T22:50:06.936Z,12.73
2018-10-04T22:52:34.700Z,13.77
2018-10-04T22:55:02.504Z,14.90
2018-10-04T22:57:30.316Z,10.57
2018-10-04T22:59:58.096Z,11.20
2018-10-04T23:02:25.929Z,11.83
2018-10-04T23:04:53.704Z,18.23
2018-10-04T23:07:21.536Z,12.53
2018-10-04T23:09:49.304Z,17.33
2018-10-04T23:12:17.123Z,12.10
2018-10-04T23:14:44.915Z,19.53
2018-10-04T23:17:12.739Z,12.53
2018-10-04T23:19:40.516Z,13.17
2018-10-04T23:22:08.351Z,16.57
2018-10-04T23:24:36.268Z,12.87
2018-10-04T23:27:04.110Z,13.47
2018-10-04T23:29:31.892Z,14.73
2018-10-04T23:31:59.798Z,10.90
2018-10-04T23:34:27.610Z,16.57
2018-10-04T23:36:55.411Z,15.63
2018-10-04T23:39:23.160Z,18.93
2018-10-04T23:41:50.932Z,16.07
2018-10-04T23:44:18.745Z,17.20
2018-10-04T23:46:46.495Z,18.47
2018-10-04T23:49:14.356Z,17.27
2018-10-04T23:51:42.211Z,15.97
2018-10-04T23:54:09.993Z,19.07
2018-10-04T23:56:37.790Z,19.57
2018-10-04T23:59:05.837Z,15.57
